Time;durP1;ratioP1;P1;durP2;ratioP2;P2;SDS_P1;SDS_P2;PMS_P1;PMS_P2;Temp;Humidity;BMP_temperature;BMP_pressure;BME280_temperature;BME280_humidity;BME280_pressure;Samples;Min_cycle;Max_cycle;Signal;HPM_P1;HPM_P2
2022/12/07 00:01:28;;;;;;;7.28;1.40;;;3.90;99.90;;;;;;6222806;23;20031;-93
2022/12/07 00:04:05;;;;;;;6.38;1.35;;;3.90;99.90;;;;;;6198215;23;20048;-92
2022/12/07 00:06:54;;;;;;;9.10;1.60;;;3.80;99.90;;;;;;6229121;23;20070;-91
2022/12/07 00:09:20;;;;;;;7.53;1.13;;;3.80;99.90;;;;;;6210960;23;20016;-92
2022/12/07 00:11:49;;;;;;;6.57;1.20;;;3.80;99.90;;;;;;6220833;23;20039;-92
2022/12/07 00:14:16;;;;;;;8.88;1.45;;;3.80;99.90;;;;;;6198036;23;20066;-92
2022/12/07 00:16:42;;;;;;;3.85;1.05;;;3.70;99.90;;;;;;6195096;23;20105;-92
2022/12/07 00:19:11;;;;;;;5.75;1.20;;;3.70;99.90;;;;;;6221384;23;20012;-94
2022/12/07 00:21:36;;;;;;;6.90;1.50;;;3.60;99.90;;;;;;6222772;23;20012;-93
2022/12/07 00:24:04;;;;;;;6.95;2.25;;;3.70;99.90;;;;;;6234481;23;20652;-92
2022/12/07 00:26:35;;;;;;;6.22;1.38;;;3.70;99.90;;;;;;6216079;23;20011;-92
2022/12/07 00:29:03;;;;;;;5.23;1.10;;;3.60;99.90;;;;;;6226485;23;20040;-91
2022/12/07 00:31:33;;;;;;;5.90;1.30;;;3.70;99.90;;;;;;6221789;23;20062;-94
2022/12/07 00:33:59;;;;;;;5.38;1.30;;;3.70;99.90;;;;;;6249036;23;20014;-92
2022/12/07 00:36:27;;;;;;;7.68;1.27;;;3.80;99.90;;;;;;6257041;23;20020;-92
2022/12/07 00:38:54;;;;;;;5.00;1.00;;;3.80;99.90;;;;;;6250364;23;20055;-92
2022/12/07 00:41:23;;;;;;;8.43;1.88;;;3.80;99.90;;;;;;6194566;23;20016;-90
2022/12/07 00:43:49;;;;;;;7.32;1.58;;;3.80;99.90;;;;;;6197353;23;20008;-92
2022/12/07 00:46:16;;;;;;;6.65;1.85;;;3.80;99.90;;;;;;6224411;23;20012;-92
2022/12/07 00:48:42;;;;;;;7.07;1.40;;;3.80;99.90;;;;;;6220589;23;20012;-91
2022/12/07 00:51:09;;;;;;;5.70;1.30;;;3.80;99.90;;;;;;6250369;23;20034;-93
2022/12/07 00:53:35;;;;;;;6.93;1.40;;;3.80;99.90;;;;;;6224134;23;20016;-92
2022/12/07 00:56:06;;;;;;;6.60;1.17;;;3.70;99.90;;;;;;6221099;23;20012;-92
2022/12/07 00:58:31;;;;;;;7.30;1.33;;;3.70;99.90;;;;;;6220523;23;20004;-91
2022/12/07 01:01:01;;;;;;;5.30;1.33;;;3.60;99.90;;;;;;6221570;23;20066;-93
2022/12/07 01:03:27;;;;;;;6.88;1.65;;;3.60;99.90;;;;;;6221241;23;20012;-92
2022/12/07 01:05:54;;;;;;;6.05;1.45;;;3.60;99.90;;;;;;6247475;23;20319;-91
2022/12/07 01:08:21;;;;;;;5.20;1.40;;;3.60;99.90;;;;;;6228173;23;20012;-93
2022/12/07 01:10:48;;;;;;;7.20;1.65;;;3.50;99.90;;;;;;6234575;23;20000;-92
2022/12/07 01:13:13;;;;;;;7.15;1.88;;;3.60;99.90;;;;;;6204293;23;20047;-93
2022/12/07 01:15:43;;;;;;;6.97;1.48;;;3.60;99.90;;;;;;6197794;23;20617;-92
2022/12/07 01:18:09;;;;;;;7.72;2.17;;;3.60;99.90;;;;;;6228816;23;20387;-93
2022/12/07 01:20:35;;;;;;;11.23;2.15;;;3.60;99.90;;;;;;6225048;23;20055;-93
2022/12/07 01:23:00;;;;;;;6.72;1.40;;;3.60;99.90;;;;;;6223254;23;20077;-93
2022/12/07 01:25:27;;;;;;;6.03;1.20;;;3.60;99.90;;;;;;6207236;23;20350;-90
2022/12/07 01:27:52;;;;;;;5.03;1.15;;;3.60;99.90;;;;;;6230422;23;20012;-91
2022/12/07 01:30:18;;;;;;;5.70;1.48;;;3.60;99.90;;;;;;6237447;23;20020;-91
2022/12/07 01:32:44;;;;;;;9.45;1.38;;;3.60;99.90;;;;;;6204357;23;20018;-93
2022/12/07 01:35:09;;;;;;;6.72;1.30;;;3.60;99.90;;;;;;6207245;23;20081;-92
2022/12/07 01:37:39;;;;;;;4.60;1.23;;;3.60;99.90;;;;;;6212212;23;20016;-92
2022/12/07 01:40:07;;;;;;;8.25;1.25;;;3.60;99.90;;;;;;6265573;23;20087;-91
2022/12/07 01:42:33;;;;;;;6.30;1.58;;;3.60;99.90;;;;;;6219803;23;20035;-91
2022/12/07 01:45:17;;;;;;;6.18;0.95;;;3.70;99.90;;;;;;6245383;23;20020;-91
2022/12/07 01:47:56;;;;;;;6.55;1.50;;;3.70;99.90;;;;;;6246757;23;20034;-93
2022/12/07 01:50:26;;;;;;;4.97;0.90;;;3.80;99.90;;;;;;6220803;23;20020;-93
2022/12/07 01:52:54;;;;;;;4.45;1.05;;;3.90;99.90;;;;;;6220220;23;20000;-93
2022/12/07 01:55:20;;;;;;;4.85;1.15;;;3.90;99.90;;;;;;6220610;22;20059;-94
2022/12/07 01:57:49;;;;;;;4.50;1.55;;;3.90;99.90;;;;;;6245070;23;20015;-91
2022/12/07 02:00:16;;;;;;;6.13;1.42;;;3.90;99.90;;;;;;6244820;22;20023;-91
2022/12/07 02:03:17;;;;;;;4.70;1.50;;;4.00;99.90;;;;;;6271146;22;20011;-91
2022/12/07 02:05:43;;;;;;;5.50;1.20;;;4.00;99.90;;;;;;6220801;23;20008;-91
2022/12/07 02:08:11;;;;;;;6.25;1.30;;;4.10;99.90;;;;;;6218671;23;20030;-90
2022/12/07 02:10:37;;;;;;;7.22;1.50;;;4.10;99.90;;;;;;6245742;22;20011;-91
2022/12/07 02:13:18;;;;;;;4.20;1.10;;;4.00;99.90;;;;;;6220234;22;20053;-90
2022/12/07 02:16:15;;;;;;;3.33;0.85;;;4.10;99.90;;;;;;6271980;22;20068;-91
2022/12/07 02:19:01;;;;;;;9.40;1.38;;;4.00;99.90;;;;;;6220536;22;20031;-91
2022/12/07 02:21:48;;;;;;;5.45;1.10;;;4.00;99.90;;;;;;6219284;22;20015;-91
2022/12/07 02:24:33;;;;;;;8.02;1.73;;;3.90;99.90;;;;;;6220874;22;20011;-91
2022/12/07 02:27:26;;;;;;;4.70;0.93;;;3.90;99.90;;;;;;6220568;22;20012;-92
2022/12/07 02:30:02;;;;;;;6.30;1.17;;;3.80;99.90;;;;;;6220768;22;20014;-91
2022/12/07 02:32:35;;;;;;;6.78;1.50;;;3.80;99.90;;;;;;6247709;22;20008;-91
2022/12/07 02:35:31;;;;;;;5.22;1.30;;;3.80;99.90;;;;;;6247820;22;20080;-92
2022/12/07 02:38:06;;;;;;;7.15;1.75;;;3.70;99.90;;;;;;6188891;22;20004;-91
2022/12/07 02:40:57;;;;;;;10.68;2.17;;;3.60;99.90;;;;;;6247469;23;20378;-92
2022/12/07 02:43:30;;;;;;;11.37;2.27;;;3.70;99.90;;;;;;6237504;22;20087;-91
2022/12/07 02:46:10;;;;;;;8.65;2.55;;;3.60;99.90;;;;;;6272335;22;20004;-92
2022/12/07 02:48:56;;;;;;;8.57;2.38;;;3.70;99.90;;;;;;6222203;23;20051;-91
2022/12/07 02:51:22;;;;;;;8.10;2.63;;;3.60;99.90;;;;;;6244220;23;20049;-90
2022/12/07 02:53:48;;;;;;;11.45;2.67;;;3.70;99.90;;;;;;6238648;23;20012;-91
2022/12/07 02:56:21;;;;;;;10.43;3.22;;;3.70;99.90;;;;;;6242487;23;20022;-92
2022/12/07 02:59:11;;;;;;;10.02;2.83;;;3.70;99.90;;;;;;6263726;23;20014;-92
2022/12/07 03:02:06;;;;;;;12.03;2.50;;;3.70;99.90;;;;;;6203510;23;20295;-91
2022/12/07 03:04:51;;;;;;;8.85;2.35;;;3.80;99.90;;;;;;6209801;23;20000;-91
2022/12/07 03:07:38;;;;;;;21.27;3.25;;;3.80;99.90;;;;;;6246553;23;20007;-92
2022/12/07 03:10:34;;;;;;;8.95;2.30;;;3.80;99.90;;;;;;6220322;23;20026;-93
2022/12/07 03:13:18;;;;;;;7.30;1.85;;;3.80;99.90;;;;;;6244519;23;20004;-92
2022/12/07 03:15:59;;;;;;;9.93;2.25;;;3.70;99.90;;;;;;6243589;22;20050;-92
2022/12/07 03:18:29;;;;;;;7.77;2.07;;;3.70;99.90;;;;;;6219710;23;20027;-93
2022/12/07 03:20:58;;;;;;;6.63;1.60;;;3.70;99.90;;;;;;6219721;23;20293;-92
2022/12/07 03:23:27;;;;;;;5.00;1.58;;;3.80;99.90;;;;;;6244893;23;20029;-93
2022/12/07 03:25:58;;;;;;;7.68;1.30;;;3.70;99.90;;;;;;6246524;22;20055;-92
2022/12/07 03:28:30;;;;;;;8.05;1.35;;;3.70;99.90;;;;;;6246096;23;20003;-92
2022/12/07 03:31:03;;;;;;;8.30;1.10;;;3.80;99.90;;;;;;6219945;23;20008;-92
2022/12/07 03:33:41;;;;;;;6.60;1.33;;;3.80;99.90;;;;;;6215170;23;20023;-92
2022/12/07 03:36:16;;;;;;;4.68;1.20;;;3.80;99.90;;;;;;6200014;23;20016;-92
2022/12/07 03:38:48;;;;;;;5.75;1.00;;;3.80;99.90;;;;;;6200898;23;20016;-91
2022/12/07 03:41:29;;;;;;;5.45;1.15;;;3.80;99.90;;;;;;6221284;23;20059;-92
2022/12/07 03:43:57;;;;;;;4.43;0.90;;;3.80;99.90;;;;;;6196557;23;20027;-92
2022/12/07 03:46:32;;;;;;;2.75;0.80;;;3.80;99.90;;;;;;6220272;23;20015;-92
2022/12/07 03:49:23;;;;;;;4.82;0.80;;;3.70;99.90;;;;;;6197939;23;20019;-91
2022/12/07 03:52:17;;;;;;;5.57;1.10;;;3.70;99.90;;;;;;6221931;23;20019;-92
2022/12/07 03:55:06;;;;;;;5.85;0.85;;;3.60;99.90;;;;;;6237164;23;20019;-90
2022/12/07 03:57:33;;;;;;;2.80;1.02;;;3.60;99.90;;;;;;6263318;23;20013;-92
2022/12/07 04:00:00;;;;;;;6.55;1.13;;;3.60;99.90;;;;;;6227869;23;20016;-92
2022/12/07 04:02:29;;;;;;;5.05;0.95;;;3.60;99.90;;;;;;6224448;23;20342;-93
2022/12/07 04:04:57;;;;;;;3.45;0.70;;;3.60;99.90;;;;;;6222810;23;20051;-92
2022/12/07 04:07:23;;;;;;;3.70;0.70;;;3.60;99.90;;;;;;6200649;23;20050;-91
2022/12/07 04:09:49;;;;;;;6.35;0.90;;;3.60;99.90;;;;;;6199916;23;20008;-91
2022/12/07 04:12:14;;;;;;;5.57;1.15;;;3.60;99.90;;;;;;6226032;23;20004;-92
2022/12/07 04:14:40;;;;;;;3.97;0.98;;;3.60;99.90;;;;;;6223590;23;20500;-93
2022/12/07 04:17:06;;;;;;;5.10;0.93;;;3.60;99.90;;;;;;6223010;23;20008;-90
2022/12/07 04:19:33;;;;;;;6.30;0.95;;;3.60;99.90;;;;;;6226751;23;20016;-92
2022/12/07 04:22:02;;;;;;;5.57;1.02;;;3.70;99.90;;;;;;6229595;23;20055;-92
2022/12/07 04:24:28;;;;;;;4.07;1.17;;;3.60;99.90;;;;;;6226334;23;20016;-93
2022/12/07 04:26:54;;;;;;;6.63;1.10;;;3.60;99.90;;;;;;6200312;23;20031;-92
2022/12/07 04:29:20;;;;;;;4.10;0.90;;;3.60;99.90;;;;;;6196746;23;20087;-91
2022/12/07 04:31:46;;;;;;;8.02;0.90;;;3.50;99.90;;;;;;6247446;23;20012;-93
2022/12/07 04:34:13;;;;;;;8.27;1.50;;;3.50;99.90;;;;;;6225133;23;20008;-91
2022/12/07 04:36:39;;;;;;;6.07;1.00;;;3.40;99.90;;;;;;6227032;23;20062;-92
2022/12/07 04:39:06;;;;;;;6.35;0.88;;;3.40;99.90;;;;;;6206267;23;20016;-93
2022/12/07 04:41:32;;;;;;;4.47;0.77;;;3.40;99.90;;;;;;6227822;23;20012;-92
2022/12/07 04:44:00;;;;;;;6.07;0.70;;;3.40;99.90;;;;;;6226723;23;20029;-92
2022/12/07 04:46:30;;;;;;;7.15;0.82;;;3.40;99.90;;;;;;6199380;23;20024;-92
2022/12/07 04:48:57;;;;;;;7.28;1.10;;;3.40;99.90;;;;;;6201506;23;20020;-92
2022/12/07 04:51:25;;;;;;;6.75;0.98;;;3.40;99.90;;;;;;6227750;23;20008;-93
2022/12/07 04:53:51;;;;;;;4.57;0.80;;;3.50;99.90;;;;;;6227866;23;20016;-93
2022/12/07 04:56:18;;;;;;;5.10;1.00;;;3.40;99.90;;;;;;6228058;23;20008;-92
2022/12/07 04:58:45;;;;;;;3.08;0.93;;;3.40;99.90;;;;;;6255968;23;20111;-92
2022/12/07 05:01:11;;;;;;;5.25;0.80;;;3.30;99.90;;;;;;6199401;23;20012;-91
2022/12/07 05:03:37;;;;;;;7.13;1.20;;;3.30;99.90;;;;;;6201807;23;20039;-91
2022/12/07 05:06:03;;;;;;;7.63;1.73;;;3.30;99.90;;;;;;6197880;23;20012;-93
2022/12/07 05:08:29;;;;;;;7.57;0.90;;;3.20;99.90;;;;;;6200861;23;20019;-92
2022/12/07 05:10:55;;;;;;;5.35;0.88;;;3.20;99.90;;;;;;6201359;23;20004;-92
2022/12/07 05:13:24;;;;;;;6.30;1.00;;;3.10;99.90;;;;;;6232891;23;20024;-92
2022/12/07 05:15:50;;;;;;;7.15;0.80;;;3.10;99.90;;;;;;6233006;23;20016;-91
2022/12/07 05:18:15;;;;;;;7.03;0.85;;;3.10;99.90;;;;;;6225779;23;20062;-93
2022/12/07 05:20:42;;;;;;;5.20;0.80;;;3.20;99.90;;;;;;6201889;23;20016;-93
2022/12/07 05:23:08;;;;;;;4.03;0.70;;;3.20;99.90;;;;;;6201552;23;20085;-93
2022/12/07 05:25:34;;;;;;;6.32;1.13;;;3.20;99.90;;;;;;6225110;23;20091;-92
2022/12/07 05:28:00;;;;;;;7.75;1.00;;;3.30;99.90;;;;;;6225947;23;20044;-92
2022/12/07 05:30:28;;;;;;;4.28;0.95;;;3.30;99.90;;;;;;6226489;23;20009;-92
2022/12/07 05:32:53;;;;;;;4.25;0.88;;;3.30;99.90;;;;;;6225560;23;20725;-93
2022/12/07 05:35:19;;;;;;;5.15;0.90;;;3.30;99.90;;;;;;6224301;23;20020;-93
2022/12/07 05:37:45;;;;;;;9.75;1.90;;;3.30;99.90;;;;;;6194958;23;20023;-93
2022/12/07 05:40:12;;;;;;;6.28;1.30;;;3.30;99.90;;;;;;6196284;23;20323;-93
2022/12/07 05:42:39;;;;;;;6.35;1.52;;;3.20;99.90;;;;;;6223755;23;20047;-92
2022/12/07 05:45:05;;;;;;;7.70;0.95;;;3.20;99.90;;;;;;6200777;23;20031;-92
2022/12/07 05:47:31;;;;;;;3.25;0.85;;;3.10;99.90;;;;;;6198382;23;20012;-92
2022/12/07 05:49:57;;;;;;;8.65;1.25;;;3.10;99.90;;;;;;6222967;23;20012;-92
2022/12/07 05:52:23;;;;;;;7.25;1.15;;;3.10;99.90;;;;;;6202060;23;20062;-92
2022/12/07 05:54:48;;;;;;;8.63;1.40;;;3.20;99.90;;;;;;6198331;23;20012;-92
2022/12/07 05:57:14;;;;;;;5.90;1.42;;;3.10;99.90;;;;;;6228121;23;20334;-92
2022/12/07 05:59:40;;;;;;;7.20;1.50;;;3.10;99.90;;;;;;6226057;23;20016;-93
2022/12/07 06:02:11;;;;;;;8.02;1.10;;;3.00;99.90;;;;;;6199431;23;20035;-92
2022/12/07 06:04:42;;;;;;;5.43;1.10;;;2.90;99.90;;;;;;6222354;23;20108;-93
2022/12/07 06:07:08;;;;;;;6.30;1.13;;;2.80;99.90;;;;;;6196364;23;20020;-92
2022/12/07 06:09:35;;;;;;;5.20;1.05;;;2.80;99.90;;;;;;6194045;23;20082;-92
2022/12/07 06:14:45;;;;;;;7.05;1.02;;;2.70;99.90;;;;;;6227927;23;20342;-92
2022/12/07 06:17:12;;;;;;;5.68;1.00;;;2.70;99.90;;;;;;6225585;23;20014;-92
2022/12/07 06:19:38;;;;;;;6.30;0.85;;;2.70;99.90;;;;;;6202803;23;20078;-92
2022/12/07 06:22:04;;;;;;;3.38;0.80;;;2.60;99.90;;;;;;6198158;23;20059;-93
2022/12/07 06:24:30;;;;;;;3.45;0.70;;;2.60;99.90;;;;;;6219466;23;20023;-92
2022/12/07 06:26:58;;;;;;;3.25;0.88;;;2.70;99.90;;;;;;6218227;23;20012;-91
2022/12/07 06:29:23;;;;;;;7.18;1.50;;;2.70;99.90;;;;;;6216410;23;20734;-92
2022/12/07 06:31:49;;;;;;;6.25;1.08;;;2.80;99.90;;;;;;6222355;23;20042;-93
2022/12/07 06:34:18;;;;;;;3.40;0.85;;;2.90;99.90;;;;;;6192497;23;20066;-92
2022/12/07 06:36:44;;;;;;;4.82;0.80;;;2.90;99.90;;;;;;6245366;23;20012;-92
2022/12/07 06:39:10;;;;;;;6.38;1.00;;;3.00;99.90;;;;;;6191470;23;20079;-91
2022/12/07 06:41:39;;;;;;;3.88;0.80;;;3.00;99.90;;;;;;6192327;23;20082;-91
2022/12/07 06:44:06;;;;;;;4.55;0.80;;;3.00;99.90;;;;;;6216270;23;20059;-92
2022/12/07 06:46:32;;;;;;;4.45;0.90;;;3.00;99.90;;;;;;6219187;23;20012;-93
2022/12/07 06:48:58;;;;;;;5.82;1.38;;;3.00;99.90;;;;;;6218704;23;20095;-92
2022/12/07 06:51:23;;;;;;;6.53;0.88;;;3.00;99.90;;;;;;6195476;23;20011;-91
2022/12/07 06:53:49;;;;;;;7.35;0.98;;;3.00;99.90;;;;;;6198691;23;20035;-92
2022/12/07 06:56:15;;;;;;;5.82;0.95;;;3.00;99.90;;;;;;6196544;23;20012;-92
2022/12/07 06:58:41;;;;;;;5.43;1.00;;;3.00;99.90;;;;;;6224683;23;20005;-91
2022/12/07 07:01:11;;;;;;;5.55;0.93;;;3.00;99.90;;;;;;6223010;23;20047;-92
2022/12/07 07:03:37;;;;;;;4.20;1.05;;;3.00;99.90;;;;;;6194002;23;20488;-90
2022/12/07 07:06:03;;;;;;;5.15;1.65;;;3.10;99.90;;;;;;6243521;23;20362;-89
2022/12/07 07:08:29;;;;;;;5.43;1.27;;;3.10;99.90;;;;;;6216030;23;20437;-85
2022/12/07 07:10:54;;;;;;;4.93;1.20;;;3.20;99.90;;;;;;6241653;23;20044;-85
2022/12/07 07:13:20;;;;;;;2.05;1.05;;;3.20;99.90;;;;;;6241747;23;20095;-86
2022/12/07 07:15:46;;;;;;;6.07;1.00;;;3.30;99.90;;;;;;6215651;23;20276;-86
2022/12/07 07:18:11;;;;;;;3.03;1.23;;;3.30;99.90;;;;;;6244368;23;20372;-85
2022/12/07 07:20:38;;;;;;;5.95;1.02;;;3.40;99.90;;;;;;6244157;23;20136;-85
2022/12/07 07:23:03;;;;;;;7.18;1.02;;;3.40;99.90;;;;;;6220460;23;20174;-85
2022/12/07 07:25:29;;;;;;;5.50;0.90;;;3.40;99.90;;;;;;6221852;23;20016;-86
2022/12/07 07:27:55;;;;;;;7.13;1.10;;;3.40;99.90;;;;;;6218059;23;20012;-86
2022/12/07 07:30:22;;;;;;;6.80;1.15;;;3.40;99.90;;;;;;6244173;23;20011;-86
2022/12/07 07:32:49;;;;;;;5.35;1.15;;;3.40;99.90;;;;;;6217556;23;20008;-86
2022/12/07 07:35:14;;;;;;;9.77;1.30;;;3.30;99.90;;;;;;6244670;23;20012;-86
2022/12/07 07:37:40;;;;;;;5.63;1.08;;;3.30;99.90;;;;;;6217386;23;20331;-86
2022/12/07 07:40:08;;;;;;;12.15;1.40;;;3.20;99.90;;;;;;6243712;23;20024;-86
2022/12/07 07:42:33;;;;;;;11.27;1.35;;;3.20;99.90;;;;;;6217019;23;20090;-86
2022/12/07 07:44:59;;;;;;;3.97;0.68;;;3.20;99.90;;;;;;6215240;23;20012;-85
2022/12/07 07:47:24;;;;;;;5.00;0.90;;;3.20;99.90;;;;;;6217768;23;20028;-85
2022/12/07 07:49:50;;;;;;;6.45;1.02;;;3.10;99.90;;;;;;6243600;23;20012;-86
2022/12/07 07:52:15;;;;;;;12.13;1.20;;;3.10;99.90;;;;;;6243618;23;20039;-85
2022/12/07 07:54:41;;;;;;;10.52;1.42;;;3.20;99.90;;;;;;6215616;23;20187;-86
2022/12/07 07:57:07;;;;;;;8.45;1.40;;;3.20;99.90;;;;;;6244039;23;20132;-86
2022/12/07 07:59:33;;;;;;;7.07;1.15;;;3.30;99.90;;;;;;6217225;23;20555;-86
2022/12/07 08:01:58;;;;;;;6.18;1.10;;;3.30;99.90;;;;;;6215603;23;20050;-86
2022/12/07 08:04:24;;;;;;;9.52;1.23;;;3.30;99.90;;;;;;6242524;23;20507;-86
2022/12/07 08:06:49;;;;;;;6.20;1.00;;;3.30;99.90;;;;;;6191175;23;20024;-84
2022/12/07 08:09:15;;;;;;;4.82;0.90;;;3.30;99.90;;;;;;6217256;23;20016;-86
2022/12/07 08:11:41;;;;;;;5.07;1.33;;;3.30;99.90;;;;;;6216656;23;20472;-85
2022/12/07 08:14:06;;;;;;;5.13;1.25;;;3.30;99.90;;;;;;6190845;23;20012;-86
2022/12/07 08:16:32;;;;;;;6.95;1.02;;;3.40;99.90;;;;;;6244058;23;20008;-85
2022/12/07 08:18:58;;;;;;;3.83;1.00;;;3.40;99.90;;;;;;6216570;23;20048;-86
2022/12/07 08:21:23;;;;;;;6.65;1.63;;;3.40;99.90;;;;;;6216573;23;20539;-87
2022/12/07 08:23:49;;;;;;;6.20;1.45;;;3.40;99.90;;;;;;6217098;23;20019;-88
2022/12/07 08:26:16;;;;;;;3.42;1.10;;;3.40;99.90;;;;;;6217334;23;20095;-87
2022/12/07 08:28:42;;;;;;;3.85;1.50;;;3.40;99.90;;;;;;6215917;23;20012;-88
2022/12/07 08:31:14;;;;;;;5.40;1.00;;;3.30;99.90;;;;;;6217019;23;20318;-88
2022/12/07 08:33:41;;;;;;;6.25;1.20;;;3.30;99.90;;;;;;6216619;23;20181;-87
2022/12/07 08:36:09;;;;;;;3.80;1.05;;;3.30;99.90;;;;;;6214798;23;20008;-87
2022/12/07 08:38:36;;;;;;;7.72;1.90;;;3.30;99.90;;;;;;6216309;23;20683;-87
2022/12/07 08:41:02;;;;;;;8.35;1.80;;;3.20;99.90;;;;;;6215209;23;20020;-87
2022/12/07 08:43:28;;;;;;;8.15;1.70;;;3.30;99.90;;;;;;6242635;23;20016;-86
2022/12/07 08:46:14;;;;;;;10.65;1.35;;;3.30;99.90;;;;;;6215702;23;20024;-86
2022/12/07 08:48:45;;;;;;;5.97;1.20;;;3.40;99.90;;;;;;6196803;23;20232;-86
2022/12/07 08:51:11;;;;;;;8.50;1.33;;;3.50;99.90;;;;;;6190760;23;20012;-85
2022/12/07 08:53:38;;;;;;;7.07;1.13;;;3.60;99.90;;;;;;6216241;23;20015;-86
2022/12/07 08:56:05;;;;;;;6.28;1.55;;;3.70;99.90;;;;;;6215933;23;20062;-86
2022/12/07 08:58:32;;;;;;;5.95;1.23;;;3.80;99.90;;;;;;6243353;23;20050;-85
2022/12/07 09:00:58;;;;;;;6.60;1.50;;;3.90;99.90;;;;;;6215363;23;20064;-85
2022/12/07 09:03:24;;;;;;;6.25;1.08;;;3.90;99.90;;;;;;6242354;23;20052;-85
2022/12/07 09:05:49;;;;;;;4.93;0.90;;;3.80;99.90;;;;;;6242661;23;20016;-85
2022/12/07 09:08:16;;;;;;;3.38;0.65;;;3.80;99.90;;;;;;6215857;23;20013;-87
2022/12/07 09:10:41;;;;;;;6.60;1.17;;;3.70;99.90;;;;;;6215140;23;20091;-84
2022/12/07 09:13:07;;;;;;;4.75;0.93;;;3.70;99.90;;;;;;6215374;23;20066;-86
2022/12/07 09:15:33;;;;;;;7.35;1.48;;;3.60;99.90;;;;;;6216008;23;20043;-84
2022/12/07 09:17:58;;;;;;;4.60;1.15;;;3.60;99.90;;;;;;6215701;23;20087;-85
2022/12/07 09:20:24;;;;;;;12.98;1.10;;;3.60;99.90;;;;;;6215520;23;20020;-85
2022/12/07 09:22:50;;;;;;;5.38;0.90;;;3.60;99.90;;;;;;6213917;23;20044;-86
2022/12/07 09:25:15;;;;;;;6.28;1.25;;;3.50;99.90;;;;;;6215294;23;20047;-86
2022/12/07 09:27:41;;;;;;;7.60;1.15;;;3.50;99.90;;;;;;6241351;23;20016;-85
2022/12/07 09:30:08;;;;;;;6.13;0.95;;;3.50;99.90;;;;;;6241427;23;20369;-86
2022/12/07 09:32:33;;;;;;;5.13;1.60;;;3.50;99.90;;;;;;6214174;23;20016;-85
2022/12/07 09:34:59;;;;;;;5.43;1.30;;;3.50;99.90;;;;;;6240853;23;20004;-85
2022/12/07 09:37:25;;;;;;;4.47;1.05;;;3.50;99.90;;;;;;6188402;23;20403;-86
2022/12/07 09:39:51;;;;;;;4.30;0.90;;;3.60;99.90;;;;;;6239906;23;20012;-84
2022/12/07 09:42:28;;;;;;;8.70;1.38;;;3.70;99.90;;;;;;6213845;23;20026;-85
2022/12/07 09:44:54;;;;;;;6.40;1.10;;;3.90;99.90;;;;;;6214473;23;20350;-84
2022/12/07 09:47:19;;;;;;;8.02;1.23;;;4.00;99.90;;;;;;6213997;23;20035;-83
2022/12/07 09:49:45;;;;;;;4.82;1.27;;;4.10;99.90;;;;;;6187433;23;20027;-84
2022/12/07 09:52:29;;;;;;;5.75;1.23;;;4.20;99.90;;;;;;6213662;23;20016;-84
2022/12/07 09:54:55;;;;;;;4.55;1.08;;;4.30;99.90;;;;;;6241488;23;20044;-85
2022/12/07 09:57:28;;;;;;;10.82;1.67;;;4.40;99.90;;;;;;6189900;23;20089;-85
2022/12/07 09:59:59;;;;;;;7.28;1.73;;;4.50;99.90;;;;;;6214416;23;20035;-85
2022/12/07 10:02:41;;;;;;;7.82;1.58;;;4.50;99.90;;;;;;6214428;23;20016;-85
2022/12/07 10:05:13;;;;;;;5.60;1.10;;;4.60;99.90;;;;;;6241485;23;20012;-84
2022/12/07 10:07:38;;;;;;;;;;;4.60;99.90;;;;;;6214710;23;20018;-85
2022/12/07 10:10:13;;;;;;;6.72;1.10;;;4.70;99.90;;;;;;6214142;23;20295;-85
2022/12/07 10:12:54;;;;;;;7.93;1.80;;;4.70;99.90;;;;;;6215387;23;20012;-85
2022/12/07 10:15:20;;;;;;;6.68;1.40;;;4.70;99.90;;;;;;6213335;23;20012;-85
2022/12/07 10:17:51;;;;;;;4.38;0.90;;;4.80;99.90;;;;;;6214718;23;20433;-83
2022/12/07 10:20:28;;;;;;;7.55;1.45;;;4.80;99.90;;;;;;6214290;23;20012;-84
2022/12/07 10:22:55;;;;;;;2.88;1.02;;;4.80;99.90;;;;;;6189658;23;20028;-85
2022/12/07 10:25:25;;;;;;;7.68;1.38;;;4.80;99.90;;;;;;6240909;23;20022;-85
2022/12/07 10:28:14;;;;;;;4.95;1.38;;;4.80;99.90;;;;;;6212728;23;20016;-85
2022/12/07 10:30:59;;;;;;;4.03;1.20;;;4.80;99.90;;;;;;6211034;23;20023;-85
2022/12/07 10:33:48;;;;;;;8.90;1.25;;;4.90;99.90;;;;;;6213329;23;20012;-85
2022/12/07 10:36:26;;;;;;;6.57;1.67;;;4.90;99.90;;;;;;6240856;23;20074;-85
2022/12/07 10:39:02;;;;;;;7.72;1.33;;;4.90;99.90;;;;;;6239434;23;20019;-86
2022/12/07 10:41:27;;;;;;;6.13;1.10;;;4.90;99.90;;;;;;6213906;23;20402;-83
2022/12/07 10:43:55;;;;;;;6.30;1.35;;;4.80;99.90;;;;;;6188186;23;20047;-84
2022/12/07 10:46:49;;;;;;;4.85;1.20;;;4.90;99.90;;;;;;6189381;23;20066;-83
2022/12/07 10:49:52;;;;;;;5.22;1.10;;;4.90;99.90;;;;;;6241883;23;20066;-83
2022/12/07 10:52:36;;;;;;;4.43;1.13;;;5.00;99.90;;;;;;6215460;23;20019;-84
2022/12/07 10:55:27;;;;;;;5.25;1.20;;;5.10;99.90;;;;;;6215049;23;20019;-83
2022/12/07 10:58:01;;;;;;;8.47;0.97;;;5.20;99.90;;;;;;6216276;23;20023;-84
2022/12/07 11:00:42;;;;;;;7.53;1.10;;;5.20;99.90;;;;;;6216590;23;20239;-84
2022/12/07 11:03:23;;;;;;;5.82;1.52;;;5.30;99.90;;;;;;6215492;23;20034;-84
2022/12/07 11:05:51;;;;;;;6.50;1.50;;;5.20;99.90;;;;;;6242991;23;20012;-82
2022/12/07 11:08:56;;;;;;;6.45;1.20;;;5.20;99.90;;;;;;6215608;23;20016;-85
2022/12/07 11:11:54;;;;;;;6.97;1.67;;;5.20;99.90;;;;;;6213738;23;20012;-83
2022/12/07 11:14:34;;;;;;;4.40;1.00;;;5.20;99.90;;;;;;6240785;23;20070;-82
2022/12/07 11:17:08;;;;;;;6.13;0.98;;;5.30;99.90;;;;;;6216016;23;20012;-83
2022/12/07 11:19:53;;;;;;;3.63;1.10;;;5.30;99.90;;;;;;6215550;23;20020;-81
2022/12/07 11:22:33;;;;;;;4.43;1.17;;;5.30;99.90;;;;;;6191352;23;20066;-83
2022/12/07 11:25:02;;;;;;;7.97;1.13;;;5.40;99.90;;;;;;6242938;23;20432;-84
2022/12/07 11:27:55;;;;;;;7.07;1.30;;;5.50;99.90;;;;;;6190627;23;20023;-82
2022/12/07 11:30:28;;;;;;;3.78;1.08;;;5.30;99.90;;;;;;6213911;23;20031;-82
2022/12/07 11:33:05;;;;;;;3.92;0.95;;;5.30;99.90;;;;;;6214824;23;20454;-84
2022/12/07 11:35:51;;;;;;;7.78;1.50;;;5.30;99.90;;;;;;6216242;23;20012;-83
2022/12/07 11:38:20;;;;;;;5.97;1.45;;;5.30;99.90;;;;;;6216077;23;20008;-82
2022/12/07 11:40:50;;;;;;;9.40;1.45;;;5.40;99.90;;;;;;6192564;23;20087;-83
2022/12/07 11:43:34;;;;;;;6.38;1.08;;;5.40;99.90;;;;;;6243669;23;20056;-83
2022/12/07 11:46:08;;;;;;;5.55;1.15;;;5.40;99.90;;;;;;6211203;23;20339;-82
2022/12/07 11:48:46;;;;;;;4.03;1.35;;;5.30;99.90;;;;;;6217404;23;20060;-83
2022/12/07 11:51:12;;;;;;;5.65;1.20;;;5.40;99.90;;;;;;6211869;23;20016;-82
2022/12/07 11:53:52;;;;;;;7.32;1.60;;;5.40;99.90;;;;;;6213193;23;20044;-83
2022/12/07 11:56:21;;;;;;;6.90;1.40;;;5.40;99.90;;;;;;6210728;23;20001;-82
2022/12/07 11:58:50;;;;;;;6.03;1.50;;;5.50;99.90;;;;;;6234764;23;20024;-81
2022/12/07 12:01:30;;;;;;;7.25;1.42;;;5.60;99.90;;;;;;6236372;23;20031;-82
2022/12/07 12:04:05;;;;;;;6.47;1.42;;;5.60;99.90;;;;;;6234649;23;20005;-81
2022/12/07 12:06:31;;;;;;;6.25;1.20;;;5.60;99.90;;;;;;6235734;23;20044;-82
2022/12/07 12:09:15;;;;;;;5.13;1.20;;;5.60;99.90;;;;;;6234615;23;20027;-83
2022/12/07 12:12:04;;;;;;;7.28;1.10;;;5.70;99.90;;;;;;6234338;23;19997;-82
2022/12/07 12:14:42;;;;;;;6.72;1.40;;;5.70;99.90;;;;;;6223313;23;20009;-82
2022/12/07 12:17:46;;;;;;;7.63;1.50;;;5.80;99.90;;;;;;6226784;23;20019;-82
2022/12/07 12:20:28;;;;;;;7.80;1.42;;;5.80;99.90;;;;;;6131152;23;20320;-81
2022/12/07 12:23:13;;;;;;;6.15;1.27;;;5.90;99.90;;;;;;6125983;23;20056;-81
2022/12/07 12:25:55;;;;;;;6.55;1.50;;;5.80;99.90;;;;;;6156133;23;20024;-82
2022/12/07 12:28:37;;;;;;;5.72;1.20;;;5.90;99.90;;;;;;6149297;23;20112;-83
2022/12/07 12:31:08;;;;;;;6.55;1.10;;;5.90;99.90;;;;;;6151490;23;20086;-88
2022/12/07 12:33:36;;;;;;;7.10;1.80;;;5.90;99.90;;;;;;6124809;23;20021;-89
2022/12/07 12:36:36;;;;;;;9.27;1.38;;;6.00;99.90;;;;;;6125067;23;20024;-89
2022/12/07 12:39:14;;;;;;;6.53;1.45;;;6.00;99.90;;;;;;6126205;23;20018;-90
2022/12/07 12:44:19;;;;;;;7.45;1.30;;;6.10;99.90;;;;;;6126147;23;20017;-89
2022/12/07 12:46:50;;;;;;;8.13;1.45;;;6.10;99.90;;;;;;6126770;23;20026;-92
2022/12/07 12:49:19;;;;;;;6.40;1.40;;;6.10;99.90;;;;;;6125778;23;20025;-88
2022/12/07 12:51:50;;;;;;;7.80;1.15;;;6.10;99.90;;;;;;6196317;23;20025;-88
2022/12/07 12:54:26;;;;;;;5.00;0.85;;;6.20;99.90;;;;;;6211000;23;20084;-88
2022/12/07 12:57:08;;;;;;;6.35;1.30;;;6.10;99.90;;;;;;6186133;23;20023;-89
2022/12/07 12:59:39;;;;;;;6.95;1.65;;;6.10;99.90;;;;;;6210520;23;20048;-88
2022/12/07 13:02:20;;;;;;;8.07;1.35;;;6.10;99.90;;;;;;6212739;23;20031;-88
2022/12/07 13:05:14;;;;;;;7.28;1.30;;;6.10;99.90;;;;;;6210399;23;20016;-85
2022/12/07 13:07:42;;;;;;;3.70;1.00;;;6.10;99.90;;;;;;6211177;23;20449;-87
2022/12/07 13:10:22;;;;;;;6.55;1.10;;;6.00;99.90;;;;;;6211415;23;20012;-88
2022/12/07 13:12:58;;;;;;;5.55;1.00;;;6.00;99.90;;;;;;6209928;23;20013;-86
2022/12/07 13:15:51;;;;;;;6.05;1.10;;;6.00;99.90;;;;;;6210921;23;20017;-87
2022/12/07 13:18:25;;;;;;;3.83;0.82;;;6.10;99.90;;;;;;6212841;23;20062;-87
2022/12/07 13:20:59;;;;;;;5.18;0.80;;;6.10;99.90;;;;;;6211326;23;20446;-84
2022/12/07 13:23:58;;;;;;;5.22;0.90;;;6.00;99.90;;;;;;6213290;23;20087;-86
2022/12/07 13:26:30;;;;;;;1.33;0.57;;;6.00;99.90;;;;;;6210972;23;20020;-87